Time;durP1;ratioP1;P1;durP2;ratioP2;P2;SDS_P1;SDS_P2;PMS_P1;PMS_P2;Temp;Humidity;BMP_temperature;BMP_pressure;BME280_temperature;BME280_humidity;BME280_pressure;Samples;Min_cycle;Max_cycle;Signal;HPM_P1;HPM_P2
2023/09/09 00:01:31;;;;;;;1.27;0.80;;;22.00;43.40;;;;;;4936190;29;20173;-51
2023/09/09 00:03:56;;;;;;;1.17;0.70;;;21.90;43.20;;;;;;4936063;29;20421;-51
2023/09/09 00:06:22;;;;;;;1.40;1.27;;;21.90;43.20;;;;;;4936137;29;20173;-51
2023/09/09 00:08:48;;;;;;;1.47;0.37;;;21.80;43.60;;;;;;4936008;29;20256;-51
2023/09/09 00:11:14;;;;;;;1.97;0.77;;;21.80;43.70;;;;;;4936175;29;20500;-51
2023/09/09 00:13:40;;;;;;;1.60;0.80;;;21.70;43.70;;;;;;4941463;29;20212;-51
2023/09/09 00:16:06;;;;;;;1.10;0.53;;;21.70;43.40;;;;;;4965769;28;20553;-52
2023/09/09 00:18:33;;;;;;;1.00;0.50;;;21.60;43.70;;;;;;4966130;28;20805;-51
2023/09/09 00:20:59;;;;;;;1.60;1.50;;;21.60;43.50;;;;;;4974204;28;20403;-50
2023/09/09 00:23:24;;;;;;;1.20;0.60;;;21.60;43.60;;;;;;4974335;28;20435;-51
2023/09/09 00:25:51;;;;;;;1.73;1.03;;;21.50;43.80;;;;;;4974220;28;20770;-51
2023/09/09 00:28:17;;;;;;;1.20;0.80;;;21.40;43.90;;;;;;4974080;28;20176;-51
2023/09/09 00:30:42;;;;;;;1.10;0.50;;;21.40;43.90;;;;;;4973930;28;20418;-50
2023/09/09 00:33:09;;;;;;;1.00;0.40;;;21.30;44.10;;;;;;4972675;28;20218;-50
2023/09/09 00:35:38;;;;;;;1.40;0.80;;;21.30;44.10;;;;;;4974058;28;20554;-52
2023/09/09 00:38:05;;;;;;;1.13;0.70;;;21.30;44.20;;;;;;4973941;28;20430;-52
2023/09/09 00:40:31;;;;;;;1.40;0.73;;;21.30;44.10;;;;;;4973828;28;20411;-51
2023/09/09 00:42:56;;;;;;;2.80;1.10;;;21.20;44.20;;;;;;4973820;28;20933;-51
2023/09/09 00:45:23;;;;;;;1.10;0.60;;;21.20;44.10;;;;;;4973842;28;20266;-52
2023/09/09 00:47:49;;;;;;;2.00;1.13;;;21.20;43.90;;;;;;4974067;28;20315;-51
2023/09/09 00:50:15;;;;;;;1.20;0.77;;;21.20;43.70;;;;;;4973550;28;20419;-51
2023/09/09 00:52:42;;;;;;;1.87;0.93;;;21.20;43.90;;;;;;4973783;28;20422;-51
2023/09/09 00:55:10;;;;;;;1.63;1.07;;;21.10;44.00;;;;;;4973520;28;20204;-52
2023/09/09 00:57:36;;;;;;;1.20;0.60;;;21.10;44.20;;;;;;4973668;28;20439;-52
2023/09/09 01:00:09;;;;;;;1.33;0.90;;;21.00;44.10;;;;;;4973440;28;20491;-51
2023/09/09 01:02:39;;;;;;;1.20;0.70;;;21.00;44.20;;;;;;4973778;28;20806;-52
2023/09/09 01:05:07;;;;;;;1.20;0.60;;;21.00;44.00;;;;;;4973593;28;20809;-51
2023/09/09 01:07:46;;;;;;;1.20;0.80;;;21.00;44.00;;;;;;4971814;28;20427;-51
2023/09/09 01:10:13;;;;;;;2.23;1.43;;;20.90;43.90;;;;;;4972472;28;20419;-51
2023/09/09 01:12:39;;;;;;;1.60;0.70;;;20.90;44.40;;;;;;4973164;28;20434;-52
2023/09/09 01:15:06;;;;;;;2.13;0.90;;;20.90;44.30;;;;;;4973318;28;20463;-51
2023/09/09 01:17:34;;;;;;;1.17;0.60;;;20.90;44.10;;;;;;4973553;28;20498;-51
2023/09/09 01:20:03;;;;;;;1.20;0.80;;;20.80;43.70;;;;;;4973166;28;20407;-51
2023/09/09 01:22:33;;;;;;;1.43;1.07;;;20.80;44.10;;;;;;4973341;28;20471;-51
2023/09/09 01:25:00;;;;;;;1.70;1.17;;;20.70;44.20;;;;;;4973200;28;20431;-51
2023/09/09 01:27:25;;;;;;;1.13;0.63;;;20.70;44.60;;;;;;4973089;28;20774;-51
2023/09/09 01:29:51;;;;;;;1.20;0.60;;;20.60;44.70;;;;;;4972983;28;20414;-52
2023/09/09 01:32:17;;;;;;;1.10;0.47;;;20.60;45.40;;;;;;4973175;28;20176;-52
2023/09/09 01:34:42;;;;;;;1.10;0.50;;;20.60;44.70;;;;;;4973022;28;20234;-52
2023/09/09 01:37:08;;;;;;;1.53;0.90;;;20.60;44.60;;;;;;4973134;28;20248;-51
2023/09/09 01:39:34;;;;;;;1.80;1.17;;;20.60;44.50;;;;;;4972938;28;20183;-51
2023/09/09 01:42:00;;;;;;;1.63;1.30;;;20.50;44.70;;;;;;4973031;28;20172;-51
2023/09/09 01:44:25;;;;;;;1.60;1.20;;;20.50;44.50;;;;;;4973160;28;20258;-51
2023/09/09 01:46:51;;;;;;;1.43;1.30;;;20.60;44.90;;;;;;4972994;28;20184;-51
2023/09/09 01:49:17;;;;;;;2.17;1.63;;;20.60;44.40;;;;;;4972749;28;20175;-51
2023/09/09 01:51:43;;;;;;;1.20;0.73;;;20.60;44.50;;;;;;4973025;28;20172;-52
2023/09/09 01:54:09;;;;;;;1.10;0.70;;;20.60;44.40;;;;;;4972626;28;20716;-51
2023/09/09 01:56:35;;;;;;;1.33;1.17;;;20.50;44.20;;;;;;4972890;28;20450;-51
2023/09/09 01:59:00;;;;;;;1.33;0.60;;;20.40;44.10;;;;;;4972747;28;20188;-51
2023/09/09 02:01:26;;;;;;;2.10;0.73;;;20.40;44.20;;;;;;4972885;28;20180;-51
2023/09/09 02:03:52;;;;;;;1.40;0.90;;;20.40;44.20;;;;;;4972902;28;20211;-51
2023/09/09 02:06:19;;;;;;;1.10;0.50;;;20.40;44.50;;;;;;4972874;28;20252;-50
2023/09/09 02:08:44;;;;;;;1.93;1.13;;;20.30;44.10;;;;;;4972683;28;20190;-52
2023/09/09 02:11:10;;;;;;;1.13;0.60;;;20.30;44.50;;;;;;4972696;28;20494;-50
2023/09/09 02:13:36;;;;;;;1.93;1.40;;;20.30;44.50;;;;;;4972741;28;20188;-52
2023/09/09 02:16:04;;;;;;;1.00;0.50;;;20.30;44.50;;;;;;4972837;28;20210;-50
2023/09/09 02:18:29;;;;;;;1.10;0.60;;;20.30;44.50;;;;;;4974103;28;20172;-52
2023/09/09 02:20:58;;;;;;;2.50;1.50;;;20.30;44.50;;;;;;4976356;28;20407;-52
2023/09/09 02:23:24;;;;;;;1.87;0.67;;;20.20;44.20;;;;;;4976237;28;20188;-51
2023/09/09 02:25:50;;;;;;;1.30;1.07;;;20.20;44.50;;;;;;4976210;28;20417;-52
2023/09/09 02:28:17;;;;;;;1.20;0.70;;;20.20;44.60;;;;;;4976409;28;20522;-51
2023/09/09 02:30:44;;;;;;;1.60;1.30;;;20.20;44.50;;;;;;4976026;28;20415;-51
2023/09/09 02:33:10;;;;;;;1.43;0.97;;;20.20;44.70;;;;;;4976115;28;20442;-51
2023/09/09 02:35:40;;;;;;;1.23;0.70;;;20.20;44.90;;;;;;4976043;28;20806;-52
2023/09/09 02:38:06;;;;;;;1.47;0.80;;;20.10;45.10;;;;;;4976072;28;20400;-51
2023/09/09 02:40:32;;;;;;;1.40;0.93;;;20.10;44.90;;;;;;4975728;28;20419;-52
2023/09/09 02:42:57;;;;;;;1.30;0.60;;;20.10;45.30;;;;;;4975882;28;20174;-51
2023/09/09 02:45:23;;;;;;;2.30;1.67;;;20.00;45.20;;;;;;4976107;28;20263;-51
2023/09/09 02:47:49;;;;;;;1.73;1.37;;;20.00;45.10;;;;;;4976035;28;20541;-52
2023/09/09 02:50:15;;;;;;;1.70;1.57;;;20.00;44.90;;;;;;4975642;28;20609;-51
2023/09/09 02:52:40;;;;;;;1.33;0.83;;;20.00;44.80;;;;;;4974480;28;20184;-51
2023/09/09 02:55:06;;;;;;;1.53;0.93;;;19.90;44.70;;;;;;4975473;28;20243;-52
2023/09/09 02:57:32;;;;;;;1.20;0.63;;;19.90;44.70;;;;;;4975733;28;20196;-51
2023/09/09 02:59:58;;;;;;;1.13;0.70;;;19.90;44.80;;;;;;4975628;28;20567;-51
2023/09/09 03:02:23;;;;;;;1.30;0.80;;;19.80;44.90;;;;;;4975796;28;20597;-51
2023/09/09 03:04:49;;;;;;;3.67;0.93;;;19.90;44.70;;;;;;4975430;28;20238;-52
2023/09/09 03:07:15;;;;;;;1.33;0.83;;;19.80;44.60;;;;;;4975520;28;20184;-51
2023/09/09 03:09:41;;;;;;;1.30;0.90;;;19.90;44.60;;;;;;4975297;28;20264;-52
2023/09/09 03:12:07;;;;;;;1.30;1.10;;;19.80;44.40;;;;;;4975548;28;20179;-50
2023/09/09 03:14:33;;;;;;;1.30;0.60;;;19.70;44.70;;;;;;4975392;28;20196;-51
2023/09/09 03:16:59;;;;;;;2.03;1.20;;;19.70;44.40;;;;;;4975457;28;20941;-49
2023/09/09 03:19:24;;;;;;;1.20;0.80;;;19.70;44.60;;;;;;4975145;28;20781;-51
2023/09/09 03:21:50;;;;;;;1.30;1.03;;;19.70;44.60;;;;;;4975290;28;20443;-51
2023/09/09 03:24:16;;;;;;;1.40;0.93;;;19.70;44.30;;;;;;4975318;28;20431;-51
2023/09/09 03:26:42;;;;;;;2.50;1.67;;;19.70;44.60;;;;;;4975459;28;20176;-50
2023/09/09 03:29:08;;;;;;;1.40;0.90;;;19.70;44.60;;;;;;4975188;28;20175;-51
2023/09/09 03:31:34;;;;;;;1.40;0.97;;;19.60;44.30;;;;;;4974489;28;20187;-51
2023/09/09 03:34:00;;;;;;;1.52;1.38;;;19.60;44.40;;;;;;4974978;28;20255;-51
2023/09/09 03:36:26;;;;;;;1.83;1.10;;;19.60;44.60;;;;;;4975085;28;20191;-51
2023/09/09 03:38:51;;;;;;;3.30;1.63;;;19.60;44.60;;;;;;4975115;28;20176;-48
2023/09/09 03:41:17;;;;;;;1.60;1.10;;;19.50;44.80;;;;;;4974934;28;20172;-51
2023/09/09 03:43:43;;;;;;;1.80;0.87;;;19.40;45.10;;;;;;4974942;28;20582;-51
2023/09/09 03:46:09;;;;;;;1.07;0.57;;;19.40;45.30;;;;;;4974916;28;20227;-49
2023/09/09 03:48:34;;;;;;;2.63;1.50;;;19.40;45.00;;;;;;4974698;28;20735;-50
2023/09/09 03:51:01;;;;;;;2.70;0.90;;;19.40;45.40;;;;;;4974751;28;20266;-50
2023/09/09 03:53:28;;;;;;;1.52;1.10;;;19.40;44.80;;;;;;4974394;28;20208;-50
2023/09/09 03:55:54;;;;;;;2.10;1.40;;;19.40;44.90;;;;;;4974561;28;20302;-50
2023/09/09 03:58:20;;;;;;;4.43;1.33;;;19.40;44.70;;;;;;4974568;28;20218;-50
2023/09/09 04:00:49;;;;;;;1.20;0.98;;;19.40;44.80;;;;;;4974370;28;20176;-50
2023/09/09 04:03:15;;;;;;;1.70;1.07;;;19.40;44.80;;;;;;4974329;28;20192;-50
2023/09/09 04:05:41;;;;;;;1.57;1.07;;;19.40;44.70;;;;;;4974513;28;20419;-50
2023/09/09 04:08:09;;;;;;;1.65;0.60;;;19.40;44.50;;;;;;4974413;28;20710;-48
2023/09/09 04:10:36;;;;;;;3.78;1.05;;;19.40;44.80;;;;;;4974195;28;20188;-50
2023/09/09 04:13:02;;;;;;;2.03;1.25;;;19.40;44.50;;;;;;4974327;28;20180;-51
2023/09/09 04:15:27;;;;;;;1.70;1.17;;;19.40;44.90;;;;;;4974260;28;20578;-51
2023/09/09 04:17:53;;;;;;;2.80;1.73;;;19.40;44.50;;;;;;4974198;28;20781;-48
2023/09/09 04:20:19;;;;;;;1.20;0.57;;;19.40;44.90;;;;;;4974246;28;20426;-51
2023/09/09 04:22:44;;;;;;;1.40;0.90;;;19.40;44.70;;;;;;4974278;28;20182;-50
2023/09/09 04:25:10;;;;;;;2.00;1.33;;;19.40;44.60;;;;;;4974187;28;20196;-48
2023/09/09 04:27:36;;;;;;;1.30;0.80;;;19.40;44.60;;;;;;4974196;28;20645;-51
2023/09/09 04:30:02;;;;;;;1.13;0.63;;;19.30;44.70;;;;;;4973881;28;20226;-48
2023/09/09 04:32:31;;;;;;;1.10;0.73;;;19.20;44.70;;;;;;4973910;28;20227;-50
2023/09/09 04:34:57;;;;;;;1.13;0.57;;;19.10;44.70;;;;;;4974006;28;20459;-52
2023/09/09 04:37:24;;;;;;;1.30;0.70;;;19.10;45.20;;;;;;4973873;28;20182;-48
2023/09/09 04:39:50;;;;;;;1.10;0.60;;;19.10;45.20;;;;;;4973612;28;20567;-48
2023/09/09 04:42:17;;;;;;;1.40;1.17;;;19.20;44.70;;;;;;4973026;28;20179;-51
2023/09/09 04:44:42;;;;;;;1.00;0.50;;;19.20;44.80;;;;;;4973748;28;20435;-51
2023/09/09 04:47:08;;;;;;;1.63;1.40;;;19.20;44.80;;;;;;4973631;28;20184;-49
2023/09/09 04:49:34;;;;;;;1.10;0.50;;;19.20;45.00;;;;;;4973529;28;20443;-51
2023/09/09 04:52:00;;;;;;;1.10;0.67;;;19.20;45.00;;;;;;4973771;28;20176;-49
2023/09/09 04:54:25;;;;;;;1.43;0.90;;;19.20;45.00;;;;;;4973372;28;20207;-49
2023/09/09 04:56:51;;;;;;;1.40;0.80;;;19.20;45.00;;;;;;4973589;28;20168;-51
2023/09/09 04:59:17;;;;;;;1.10;0.50;;;19.10;44.90;;;;;;4973363;28;20546;-49
2023/09/09 05:01:42;;;;;;;1.10;0.70;;;19.10;45.00;;;;;;4973499;28;20179;-52
2023/09/09 05:04:08;;;;;;;3.30;1.23;;;19.20;45.00;;;;;;4973415;28;20270;-52
2023/09/09 05:06:34;;;;;;;1.93;1.07;;;19.20;44.80;;;;;;4973430;28;20172;-50
2023/09/09 05:09:00;;;;;;;1.03;0.60;;;19.20;44.70;;;;;;4973354;28;20427;-50
2023/09/09 05:11:26;;;;;;;1.10;0.67;;;19.30;45.10;;;;;;4973475;28;20414;-52
2023/09/09 05:13:51;;;;;;;1.17;0.83;;;19.30;45.20;;;;;;4973229;28;20191;-52
2023/09/09 05:16:17;;;;;;;1.10;0.80;;;19.30;45.40;;;;;;4973187;28;20208;-49
2023/09/09 05:18:43;;;;;;;1.10;0.60;;;19.30;45.10;;;;;;4973427;28;20187;-49
2023/09/09 05:21:09;;;;;;;1.20;0.80;;;19.40;44.90;;;;;;4973413;28;20626;-52
2023/09/09 05:23:35;;;;;;;1.20;0.50;;;19.50;45.30;;;;;;4973155;28;20199;-49
2023/09/09 05:26:01;;;;;;;1.40;1.13;;;19.50;45.30;;;;;;4973302;28;20644;-49
2023/09/09 05:28:27;;;;;;;1.08;0.52;;;19.60;45.60;;;;;;4973147;28;20226;-51
2023/09/09 05:30:53;;;;;;;1.50;0.60;;;19.60;45.60;;;;;;4972999;28;20200;-50
2023/09/09 05:33:19;;;;;;;1.73;1.23;;;19.70;46.20;;;;;;4973505;28;20218;-50
2023/09/09 05:35:48;;;;;;;3.10;1.13;;;19.80;45.80;;;;;;4973143;28;20604;-50
2023/09/09 05:38:14;;;;;;;1.33;0.63;;;19.80;45.80;;;;;;4973118;28;20407;-48
2023/09/09 05:40:40;;;;;;;3.40;1.27;;;20.00;45.60;;;;;;4973047;28;20179;-50
2023/09/09 05:43:05;;;;;;;3.67;0.83;;;20.10;45.50;;;;;;4973063;28;20183;-51
2023/09/09 05:45:31;;;;;;;1.20;0.70;;;20.30;45.40;;;;;;4973022;28;20770;-52
2023/09/09 05:47:57;;;;;;;1.37;0.93;;;20.40;45.00;;;;;;4973257;28;20219;-50
2023/09/09 05:50:22;;;;;;;1.20;0.53;;;20.50;45.40;;;;;;4972757;28;20172;-47
2023/09/09 05:52:48;;;;;;;1.73;1.20;;;20.60;45.00;;;;;;4973245;28;20646;-52
2023/09/09 05:55:14;;;;;;;1.10;0.50;;;20.80;45.10;;;;;;4976617;28;20218;-51
2023/09/09 05:57:40;;;;;;;1.30;0.80;;;20.90;45.10;;;;;;4976858;28;20263;-50
2023/09/09 06:00:06;;;;;;;1.20;0.90;;;21.10;45.10;;;;;;4976497;28;20183;-50
2023/09/09 06:02:32;;;;;;;2.85;2.17;;;21.20;45.20;;;;;;4975481;28;20411;-52
2023/09/09 06:04:58;;;;;;;1.00;0.40;;;21.30;45.20;;;;;;4976707;28;20202;-51
2023/09/09 06:07:24;;;;;;;1.20;0.70;;;21.30;45.40;;;;;;4976794;28;20184;-49
2023/09/09 06:09:50;;;;;;;1.10;0.50;;;21.50;45.30;;;;;;4976756;28;20759;-52
2023/09/09 06:12:17;;;;;;;1.40;1.10;;;21.50;45.90;;;;;;4976535;28;20179;-50
2023/09/09 06:14:43;;;;;;;1.20;0.80;;;21.70;45.60;;;;;;4976323;28;20212;-49
2023/09/09 06:17:08;;;;;;;2.27;1.33;;;21.80;45.50;;;;;;4976665;28;20830;-49
2023/09/09 06:19:34;;;;;;;1.40;1.13;;;21.90;45.40;;;;;;4976312;28;20665;-51
2023/09/09 06:22:00;;;;;;;1.30;0.70;;;22.00;45.40;;;;;;4976347;28;20219;-49
2023/09/09 06:24:27;;;;;;;1.73;0.73;;;22.10;45.10;;;;;;4976347;28;20211;-52
2023/09/09 06:26:53;;;;;;;1.20;0.80;;;22.20;45.40;;;;;;4976337;28;20183;-52
2023/09/09 06:29:19;;;;;;;1.27;0.63;;;22.20;45.60;;;;;;4975915;28;20415;-49
2023/09/09 06:31:44;;;;;;;1.13;0.70;;;22.30;45.30;;;;;;4976212;28;20275;-52
2023/09/09 06:34:13;;;;;;;2.37;1.33;;;22.40;44.90;;;;;;4976116;28;20286;-49
2023/09/09 06:36:39;;;;;;;1.10;0.50;;;22.50;44.90;;;;;;4976313;28;20168;-51
2023/09/09 06:39:04;;;;;;;1.83;0.90;;;22.50;44.80;;;;;;4976058;28;20778;-51
2023/09/09 06:41:30;;;;;;;1.40;1.00;;;22.60;44.60;;;;;;4976055;28;20231;-49
2023/09/09 06:43:56;;;;;;;1.20;0.77;;;22.80;44.50;;;;;;4975827;28;20312;-52
2023/09/09 06:46:22;;;;;;;1.40;0.90;;;22.90;44.50;;;;;;4975978;28;20891;-50
2023/09/09 06:48:47;;;;;;;1.20;0.60;;;23.00;44.40;;;;;;4975960;28;20180;-51
2023/09/09 06:51:13;;;;;;;1.90;1.20;;;23.10;44.10;;;;;;4976038;28;20200;-50
2023/09/09 06:53:39;;;;;;;1.10;0.60;;;23.20;44.20;;;;;;4975667;28;20313;-51
2023/09/09 06:56:05;;;;;;;1.40;0.87;;;23.30;43.50;;;;;;4975694;28;20204;-49
2023/09/09 06:58:30;;;;;;;1.20;0.70;;;23.40;43.80;;;;;;4975629;28;20186;-49
2023/09/09 07:00:56;;;;;;;1.33;0.80;;;23.50;43.80;;;;;;4975715;28;20178;-51
2023/09/09 07:03:22;;;;;;;1.77;0.70;;;23.60;43.70;;;;;;4975677;28;20184;-51
2023/09/09 07:05:48;;;;;;;1.30;0.80;;;23.80;43.30;;;;;;4974811;28;20713;-49
2023/09/09 07:08:14;;;;;;;1.63;0.60;;;23.90;43.30;;;;;;4975657;28;20180;-48
2023/09/09 07:10:47;;;;;;;1.40;0.97;;;24.00;43.10;;;;;;4975380;28;20419;-52
2023/09/09 07:13:13;;;;;;;1.00;0.50;;;24.10;42.90;;;;;;4975569;28;20196;-50
2023/09/09 07:15:38;;;;;;;4.00;1.77;;;24.20;43.10;;;;;;4975517;28;20459;-48
2023/09/09 07:18:04;;;;;;;1.40;0.70;;;24.30;42.40;;;;;;4975375;28;20194;-51
2023/09/09 07:20:30;;;;;;;2.03;1.00;;;24.40;42.10;;;;;;4975027;28;20172;-49
2023/09/09 07:22:56;;;;;;;1.30;0.50;;;24.50;41.90;;;;;;4975247;28;20183;-48
2023/09/09 07:25:21;;;;;;;1.40;0.77;;;24.60;41.90;;;;;;4975209;28;20743;-51
2023/09/09 07:27:47;;;;;;;1.30;0.73;;;24.60;41.10;;;;;;4975426;28;20172;-48
2023/09/09 07:30:13;;;;;;;1.20;0.70;;;24.70;41.30;;;;;;4975115;28;20554;-48
2023/09/09 07:32:39;;;;;;;1.10;0.50;;;24.80;41.40;;;;;;4975037;28;20185;-50
2023/09/09 07:35:05;;;;;;;1.20;0.70;;;24.90;41.60;;;;;;4974848;28;20286;-49
2023/09/09 07:37:31;;;;;;;2.17;0.97;;;25.00;41.00;;;;;;4975110;28;20542;-49
2023/09/09 07:40:00;;;;;;;2.20;1.50;;;25.10;41.30;;;;;;4974688;28;20499;-51
2023/09/09 07:42:26;;;;;;;1.20;0.60;;;25.20;41.20;;;;;;4974942;28;20178;-49
2023/09/09 07:44:53;;;;;;;1.27;0.60;;;25.30;40.90;;;;;;4974977;28;20514;-50
2023/09/09 07:47:20;;;;;;;1.17;0.63;;;25.40;40.50;;;;;;4974960;28;20551;-49
2023/09/09 07:49:46;;;;;;;1.70;0.97;;;25.50;40.50;;;;;;4974559;28;20502;-48
2023/09/09 07:52:12;;;;;;;1.23;0.80;;;25.70;40.30;;;;;;4974806;28;20495;-51
2023/09/09 07:54:38;;;;;;;1.10;0.77;;;25.80;40.20;;;;;;4974519;28;20498;-47
2023/09/09 07:57:04;;;;;;;1.70;0.80;;;25.90;38.60;;;;;;4974693;28;20223;-50
2023/09/09 07:59:30;;;;;;;1.23;0.77;;;26.00;39.80;;;;;;4974436;28;20172;-51
2023/09/09 08:01:56;;;;;;;2.33;1.17;;;26.00;39.00;;;;;;4974531;28;20403;-49
2023/09/09 08:04:22;;;;;;;1.87;1.00;;;26.20;39.20;;;;;;4974486;28;20423;-51
2023/09/09 08:06:50;;;;;;;1.33;1.00;;;26.20;39.00;;;;;;4974542;28;20769;-49
2023/09/09 08:09:16;;;;;;;1.20;0.80;;;26.30;37.30;;;;;;4974185;28;20430;-48
2023/09/09 08:11:41;;;;;;;1.40;0.77;;;26.40;38.10;;;;;;4974388;28;20765;-50
2023/09/09 08:14:07;;;;;;;1.33;0.70;;;26.60;37.90;;;;;;4974368;28;20200;-50
2023/09/09 08:16:33;;;;;;;1.10;0.60;;;26.60;37.70;;;;;;4974093;28;20196;-49
2023/09/09 08:19:00;;;;;;;1.90;1.23;;;26.80;38.10;;;;;;4974111;28;20247;-52
2023/09/09 08:21:25;;;;;;;1.90;1.00;;;27.00;37.90;;;;;;4974093;28;20594;-48
2023/09/09 08:23:52;;;;;;;1.10;0.57;;;27.00;36.10;;;;;;4973964;28;20428;-50
2023/09/09 08:26:18;;;;;;;1.40;0.90;;;27.10;36.40;;;;;;4974134;28;20211;-51
2023/09/09 08:28:44;;;;;;;1.27;0.57;;;27.20;36.00;;;;;;4973845;28;20435;-52
2023/09/09 08:31:09;;;;;;;1.63;1.03;;;27.20;36.70;;;;;;4973995;28;20443;-49
2023/09/09 08:33:35;;;;;;;1.43;0.73;;;27.30;35.70;;;;;;4973766;28;20211;-50
2023/09/09 08:36:05;;;;;;;1.83;1.30;;;27.40;36.20;;;;;;4973890;28;20261;-52
2023/09/09 08:38:31;;;;;;;1.57;0.83;;;27.50;36.20;;;;;;4973831;28;20708;-49
2023/09/09 08:41:17;;;;;;;1.67;0.70;;;27.70;36.00;;;;;;4973930;28;20461;-51
2023/09/09 08:44:14;;;;;;;1.40;0.90;;;27.90;35.80;;;;;;4973789;28;20424;-50
2023/09/09 08:46:40;;;;;;;1.40;1.07;;;28.00;35.20;;;;;;4973694;28;20399;-52
2023/09/09 08:49:12;;;;;;;1.70;0.90;;;28.10;34.80;;;;;;4973527;28;20411;-49
2023/09/09 08:51:45;;;;;;;1.73;0.70;;;28.20;34.20;;;;;;4973793;28;20251;-51
2023/09/09 08:54:13;;;;;;;2.43;1.40;;;28.20;33.90;;;;;;4973590;28;20447;-50
2023/09/09 08:56:39;;;;;;;1.50;1.13;;;28.20;34.40;;;;;;4973680;28;20427;-51
2023/09/09 08:59:06;;;;;;;1.47;1.00;;;28.30;34.70;;;;;;4973296;28;20408;-48
2023/09/09 09:01:35;;;;;;;1.53;0.77;;;28.40;34.40;;;;;;4973800;28;21103;-51
2023/09/09 09:04:01;;;;;;;1.20;0.63;;;28.50;34.50;;;;;;4973610;28;20514;-48
2023/09/09 09:06:27;;;;;;;1.57;1.07;;;28.60;34.50;;;;;;4973513;28;20497;-51
2023/09/09 09:08:53;;;;;;;2.27;1.57;;;28.60;33.90;;;;;;4973681;28;20176;-49
2023/09/09 09:11:21;;;;;;;1.20;0.50;;;28.70;33.40;;;;;;4973362;28;20409;-51
2023/09/09 09:13:47;;;;;;;2.13;1.17;;;28.70;34.00;;;;;;4973231;28;20216;-48
2023/09/09 09:16:13;;;;;;;1.83;0.77;;;28.80;33.20;;;;;;4973568;28;20849;-48
2023/09/09 09:18:39;;;;;;;1.93;0.60;;;28.80;33.10;;;;;;4973273;28;20176;-52
2023/09/09 09:21:09;;;;;;;1.33;1.00;;;28.90;33.40;;;;;;4973416;28;20938;-49
2023/09/09 09:23:46;;;;;;;2.03;1.30;;;29.00;33.50;;;;;;4973174;28;20435;-49
2023/09/09 09:26:25;;;;;;;1.37;0.70;;;29.00;33.50;;;;;;4973186;28;20435;-50
2023/09/09 09:28:51;;;;;;;1.10;0.60;;;29.10;33.40;;;;;;4972566;28;20443;-49
2023/09/09 09:31:23;;;;;;;1.37;0.70;;;29.10;33.50;;;;;;4973251;28;20420;-50
2023/09/09 09:33:53;;;;;;;1.10;0.40;;;29.20;33.30;;;;;;4973165;28;20459;-48
2023/09/09 09:36:23;;;;;;;1.53;0.70;;;29.30;33.20;;;;;;4973157;28;20459;-50
2023/09/09 09:38:53;;;;;;;1.30;0.80;;;29.30;33.10;;;;;;4972812;28;20458;-50
2023/09/09 09:41:20;;;;;;;1.30;0.70;;;29.40;33.10;;;;;;4973092;28;20414;-52
2023/09/09 09:43:47;;;;;;;1.50;0.57;;;29.40;33.10;;;;;;4973002;28;20978;-49
2023/09/09 09:46:18;;;;;;;2.70;0.87;;;29.50;34.20;;;;;;4973070;28;20413;-49
2023/09/09 09:48:44;;;;;;;1.60;0.57;;;29.70;33.30;;;;;;4972917;28;20408;-51
2023/09/09 09:51:10;;;;;;;1.60;0.57;;;29.70;31.50;;;;;;4972911;28;20433;-50
2023/09/09 09:53:48;;;;;;;1.70;0.87;;;29.80;31.50;;;;;;4972927;28;20447;-50
2023/09/09 09:56:18;;;;;;;1.30;0.80;;;29.70;32.00;;;;;;4972926;28;20487;-49
2023/09/09 09:58:45;;;;;;;1.37;0.60;;;29.80;32.20;;;;;;4972726;28;20461;-51
2023/09/09 10:01:11;;;;;;;1.53;1.40;;;29.80;33.00;;;;;;4973097;28;20399;-52
2023/09/09 10:03:47;;;;;;;1.37;0.90;;;30.00;32.80;;;;;;4972821;28;20459;-50
2023/09/09 10:06:18;;;;;;;1.10;0.50;;;30.00;32.20;;;;;;4973071;28;20419;-52
2023/09/09 10:08:53;;;;;;;1.30;0.90;;;30.10;33.30;;;;;;4972734;28;20438;-50
2023/09/09 10:11:24;;;;;;;1.30;0.80;;;30.30;32.90;;;;;;4972889;28;20414;-51
2023/09/09 10:14:11;;;;;;;1.23;0.60;;;30.40;32.40;;;;;;4972916;28;20438;-53
2023/09/09 10:16:38;;;;;;;2.97;0.97;;;30.40;31.70;;;;;;4972635;28;20483;-52
2023/09/09 10:19:04;;;;;;;2.37;1.17;;;30.50;31.40;;;;;;4972594;28;20495;-50
2023/09/09 10:21:33;;;;;;;1.30;0.70;;;30.60;31.90;;;;;;4972777;28;20473;-51
2023/09/09 10:24:01;;;;;;;1.53;0.93;;;30.60;32.20;;;;;;4972679;28;20432;-53
2023/09/09 10:26:27;;;;;;;1.10;0.53;;;30.70;30.30;;;;;;4972734;28;20421;-51
2023/09/09 10:28:54;;;;;;;1.40;0.70;;;30.70;29.30;;;;;;4972404;28;20914;-50
2023/09/09 10:31:20;;;;;;;1.27;0.47;;;30.70;30.50;;;;;;4972580;28;20905;-53
2023/09/09 10:33:47;;;;;;;1.13;0.53;;;30.80;30.10;;;;;;4972502;28;20485;-50
2023/09/09 10:36:15;;;;;;;1.33;0.73;;;30.80;30.40;;;;;;4972661;28;20459;-52
2023/09/09 10:38:41;;;;;;;1.40;0.60;;;30.90;30.10;;;;;;4972225;28;20483;-52
2023/09/09 10:41:08;;;;;;;1.23;0.50;;;31.00;29.90;;;;;;4974595;28;20988;-53
2023/09/09 10:43:34;;;;;;;1.40;0.90;;;31.10;28.50;;;;;;4975987;28;20542;-52
2023/09/09 10:45:59;;;;;;;1.83;1.07;;;31.20;28.90;;;;;;4976080;28;20454;-51
2023/09/09 10:48:27;;;;;;;1.20;0.50;;;31.30;28.30;;;;;;4975891;28;20602;-51
2023/09/09 10:50:53;;;;;;;1.20;0.77;;;31.30;28.00;;;;;;4975798;28;20665;-51
2023/09/09 10:53:29;;;;;;;1.20;0.70;;;31.30;27.10;;;;;;4975642;28;20454;-50
2023/09/09 10:55:59;;;;;;;1.40;0.70;;;31.30;26.90;;;;;;4975764;28;20203;-53
2023/09/09 10:58:33;;;;;;;1.10;0.40;;;31.30;26.90;;;;;;4975914;28;20636;-49
2023/09/09 11:00:59;;;;;;;1.27;0.67;;;31.40;27.70;;;;;;4975737;28;20409;-53
2023/09/09 11:03:36;;;;;;;1.37;0.67;;;31.40;27.70;;;;;;4975613;28;20423;-53
2023/09/09 11:06:05;;;;;;;1.50;0.87;;;31.50;28.00;;;;;;4975669;28;20513;-52
2023/09/09 11:08:43;;;;;;;3.80;1.27;;;31.60;27.60;;;;;;4975402;28;20415;-49
2023/09/09 11:11:12;;;;;;;1.50;1.10;;;31.60;27.20;;;;;;4975538;28;20417;-53
2023/09/09 11:13:43;;;;;;;1.20;0.70;;;31.80;27.60;;;;;;4975476;28;20423;-51
2023/09/09 11:16:32;;;;;;;1.30;0.70;;;31.80;26.30;;;;;;4975452;28;20458;-53
2023/09/09 11:19:04;;;;;;;1.50;0.90;;;31.90;26.90;;;;;;4975170;28;20414;-52
2023/09/09 11:21:32;;;;;;;1.10;0.53;;;31.90;26.20;;;;;;4975616;28;20893;-50
2023/09/09 11:23:58;;;;;;;1.10;0.50;;;31.90;26.50;;;;;;4975138;28;20435;-49
2023/09/09 11:26:25;;;;;;;1.23;0.60;;;31.90;26.10;;;;;;4975194;28;20850;-52
2023/09/09 11:28:52;;;;;;;1.33;0.60;;;31.90;26.50;;;;;;4974951;28;20546;-50
2023/09/09 11:31:18;;;;;;;1.20;0.50;;;32.00;26.90;;;;;;4975073;28;20408;-51
2023/09/09 11:33:44;;;;;;;1.60;0.83;;;32.00;27.50;;;;;;4974934;28;20436;-52
2023/09/09 11:36:14;;;;;;;1.20;0.50;;;32.10;26.70;;;;;;4975133;28;20206;-51
2023/09/09 11:38:40;;;;;;;1.13;0.60;;;32.20;25.70;;;;;;4974864;28;20408;-50
2023/09/09 11:41:06;;;;;;;1.60;0.67;;;32.10;26.00;;;;;;4974992;28;20547;-53
2023/09/09 11:43:32;;;;;;;2.40;0.53;;;32.10;25.10;;;;;;4974739;28;20195;-53
2023/09/09 11:45:58;;;;;;;1.30;0.60;;;32.10;25.10;;;;;;4974820;28;20407;-50
2023/09/09 11:48:24;;;;;;;1.10;0.50;;;32.10;25.40;;;;;;4974810;28;20172;-54
2023/09/09 11:50:51;;;;;;;1.00;0.33;;;32.10;25.00;;;;;;4974259;28;20458;-52
2023/09/09 11:53:20;;;;;;;1.57;0.60;;;32.10;25.70;;;;;;4974644;28;20458;-51
2023/09/09 11:55:52;;;;;;;1.20;0.67;;;32.20;25.60;;;;;;4974603;28;20824;-52
2023/09/09 11:58:18;;;;;;;1.10;0.53;;;32.30;25.70;;;;;;4974495;28;20939;-50
2023/09/09 12:00:44;;;;;;;1.40;1.17;;;32.20;24.50;;;;;;4974756;28;20503;-51
2023/09/09 12:03:17;;;;;;;1.93;0.87;;;32.30;24.50;;;;;;4974503;28;20407;-51
2023/09/09 12:05:43;;;;;;;1.27;0.70;;;32.30;24.40;;;;;;4974607;28;20168;-51
2023/09/09 12:08:09;;;;;;;1.33;0.93;;;32.20;25.20;;;;;;4974523;28;20500;-51
2023/09/09 12:10:37;;;;;;;1.30;0.50;;;32.30;25.80;;;;;;4974508;28;20427;-52
2023/09/09 12:13:04;;;;;;;1.10;0.57;;;32.40;26.10;;;;;;4974408;28;20416;-49
2023/09/09 12:15:30;;;;;;;1.30;0.90;;;32.40;24.60;;;;;;4974418;28;20458;-50
2023/09/09 12:17:56;;;;;;;1.30;0.77;;;32.50;24.50;;;;;;4974364;28;20412;-52
2023/09/09 12:20:22;;;;;;;1.93;0.90;;;32.50;24.50;;;;;;4972791;28;20461;-54
2023/09/09 12:22:50;;;;;;;1.47;0.50;;;32.50;24.20;;;;;;4974095;28;20244;-51
2023/09/09 12:25:32;;;;;;;1.10;0.50;;;32.50;24.20;;;;;;4973938;28;20654;-54
2023/09/09 12:27:58;;;;;;;1.10;0.50;;;32.50;24.20;;;;;;4974154;28;20419;-51
2023/09/09 12:30:40;;;;;;;1.20;0.70;;;32.50;23.90;;;;;;4973839;28;20419;-53
2023/09/09 12:33:12;;;;;;;1.30;0.70;;;32.50;24.30;;;;;;4973952;28;20418;-50
2023/09/09 12:35:39;;;;;;;1.23;0.70;;;32.50;25.10;;;;;;4973905;28;20459;-53
2023/09/09 12:38:05;;;;;;;1.00;0.40;;;32.60;25.30;;;;;;4973803;28;20450;-52
2023/09/09 12:41:04;;;;;;;1.50;0.80;;;32.60;24.00;;;;;;4973915;28;20490;-51
2023/09/09 12:43:30;;;;;;;1.07;0.47;;;32.60;23.80;;;;;;4971476;28;20458;-53
2023/09/09 12:46:05;;;;;;;1.03;0.50;;;32.60;25.30;;;;;;4971405;28;20426;-52
2023/09/09 12:48:32;;;;;;;1.40;0.90;;;32.60;24.40;;;;;;4971444;28;20415;-53